Jack Robertson — WDE5993 — position and weather

sailwx.info

Track history (hours):
 
Tides and Currents Weather Stations Pressure Air Temp Water Temp Dewpoint Dewpoint Depression Visibility Wind Speed Wind Dir Waves Ship Positions

Oceanographic research ship Jack Robertson (United States)

Owner: University of Washington Applied Physics Laboratory, Seattle, WA. More information available from US FCC via Universal Licensing System and Coast Guard Vessel Documentation Center.

Last reported at 2020-Jul-31 18:00 UTC. Time now 2020-Aug-07 09:51 UTC.
Position N 47°43' W 122°25'.

; draft 1.7 m.

Type: Other ship. MMSI: 367374350.

Date/timePositionNaut miles runAvg speedWind from/ knotsBaromVisibWave heightAir tempDewpointWater temp
2020-Jul-31 18:00N 47°43' W 122°25'2 0.9
2020-Jul-31 15:30N 47°41' W 122°25'0 0.0
2020-Jul-31 12:00N 47°41' W 122°25'0 0.0
2020-Jul-31 10:00N 47°41' W 122°25'0 0.0
2020-Jul-31 06:30N 47°41' W 122°25'0 0.0
2020-Jul-31 06:00N 47°41' W 122°25'0 0.0
2020-Jul-31 05:00N 47°41' W 122°25'0 0.0
2020-Jul-31 04:00N 47°41' W 122°25'0 0.0
2020-Jul-31 01:00N 47°41' W 122°25'0 0.0
2020-Jul-31 00:30N 47°41' W 122°25'0 0.0
2020-Jul-30 22:30N 47°41' W 122°25'0 0.0
2020-Jul-30 21:30N 47°41' W 122°25'0 0.0
2020-Jul-30 20:30N 47°41' W 122°25'0 0.0
2020-Jul-30 19:30N 47°41' W 122°25'0 0.0
2020-Jul-30 04:00N 47°41' W 122°25'4 0.4
2020-Jul-29 17:00N 47°45' W 122°25'4 7.9
2020-Jul-29 16:30N 47°41' W 122°25'0 0.0
2020-Jul-28 23:30N 47°41' W 122°25'3 0.8
2020-Jul-28 19:31N 47°44' W 122°24'0 0.1
2020-Jul-28 17:00N 47°44' W 122°24'  
Track history (hours):
 
Tides and Currents Weather Stations Pressure Air Temp Water Temp Dewpoint Dewpoint Depression Visibility Wind Speed Wind Dir Waves Ship Positions

Oceanographic research ship Jack Robertson (United States)

Owner: University of Washington Applied Physics Laboratory, Seattle, WA. More information available from US FCC via Universal Licensing System and Coast Guard Vessel Documentation Center.

Last reported at 2020-Jul-31 18:00 UTC. Time now 2020-Aug-07 09:51 UTC.
Position N 47°43' W 122°25'.

; draft 1.7 m.

Type: Other ship. MMSI: 367374350.

Date/timePositionNaut miles runAvg speedWind from/ knotsBaromVisibWave heightAir tempDewpointWater temp
2020-Jul-31 18:00N 47°43' W 122°25'2 0.9
2020-Jul-31 15:30N 47°41' W 122°25'0 0.0
2020-Jul-31 12:00N 47°41' W 122°25'0 0.0
2020-Jul-31 10:00N 47°41' W 122°25'0 0.0
2020-Jul-31 06:30N 47°41' W 122°25'0 0.0
2020-Jul-31 06:00N 47°41' W 122°25'0 0.0
2020-Jul-31 05:00N 47°41' W 122°25'0 0.0
2020-Jul-31 04:00N 47°41' W 122°25'0 0.0
2020-Jul-31 01:00N 47°41' W 122°25'0 0.0
2020-Jul-31 00:30N 47°41' W 122°25'0 0.0
2020-Jul-30 22:30N 47°41' W 122°25'0 0.0
2020-Jul-30 21:30N 47°41' W 122°25'0 0.0
2020-Jul-30 20:30N 47°41' W 122°25'0 0.0
2020-Jul-30 19:30N 47°41' W 122°25'0 0.0
2020-Jul-30 04:00N 47°41' W 122°25'4 0.4
2020-Jul-29 17:00N 47°45' W 122°25'4 7.9
2020-Jul-29 16:30N 47°41' W 122°25'0 0.0
2020-Jul-28 23:30N 47°41' W 122°25'3 0.8
2020-Jul-28 19:31N 47°44' W 122°24'0 0.1
2020-Jul-28 17:00N 47°44' W 122°24'  

Dump ship's entire track history